Time;durP1;ratioP1;P1;durP2;ratioP2;P2;SDS_P1;SDS_P2;PMS_P1;PMS_P2;Temp;Humidity;BMP_temperature;BMP_pressure;BME280_temperature;BME280_humidity;BME280_pressure;Samples;Min_cycle;Max_cycle;Signal;HPM_P1;HPM_P2
2023/07/31 00:01:00;;;;;;;3.15;1.70;;;;;;;20.67;59.00;95127.03;5121757;28;20227;-80
2023/07/31 00:03:26;;;;;;;3.35;1.90;;;;;;;20.62;59.45;95142.69;5122219;28;20199;-81
2023/07/31 00:05:53;;;;;;;3.75;1.85;;;;;;;20.59;59.79;95156.28;5118218;28;20196;-80
2023/07/31 00:08:19;;;;;;;2.67;1.75;;;;;;;20.56;59.91;95156.78;5102181;28;20215;-80
2023/07/31 00:10:45;;;;;;;2.50;1.60;;;;;;;20.49;60.15;95167.44;5102410;28;20200;-80
2023/07/31 00:13:12;;;;;;;2.33;1.60;;;;;;;20.53;59.71;95160.66;5102826;28;20200;-80
2023/07/31 00:15:40;;;;;;;3.17;1.95;;;;;;;20.53;59.61;95152.81;5121656;28;20637;-81
2023/07/31 00:18:06;;;;;;;2.38;1.83;;;;;;;20.57;59.65;95156.53;5121329;28;20203;-80
2023/07/31 00:20:32;;;;;;;1.73;1.63;;;;;;;20.54;59.56;95162.25;5121083;28;20256;-80
2023/07/31 00:22:59;;;;;;;4.93;1.92;;;;;;;20.49;60.12;95167.44;5122664;28;20205;-82
2023/07/31 00:25:25;;;;;;;2.25;2.05;;;;;;;20.42;60.44;95179.91;5110805;28;20241;-82
2023/07/31 00:27:52;;;;;;;6.00;2.08;;;;;;;20.41;60.53;95190.63;5100733;28;20203;-82
2023/07/31 00:30:18;;;;;;;4.10;1.98;;;;;;;20.37;60.67;95198.19;5100542;28;20218;-82
2023/07/31 00:32:46;;;;;;;4.15;2.10;;;;;;;20.31;61.16;95202.53;5100740;28;20196;-83
2023/07/31 00:35:12;;;;;;;4.47;2.10;;;;;;;20.33;60.98;95203.09;5118079;28;20200;-82
2023/07/31 00:37:39;;;;;;;4.32;2.22;;;;;;;20.34;60.94;95196.81;5118780;28;20195;-82
2023/07/31 00:40:06;;;;;;;2.75;1.92;;;;;;;20.30;61.07;95198.34;5119342;28;20224;-82
2023/07/31 00:42:33;;;;;;;2.72;2.00;;;;;;;20.39;60.81;95187.47;5119266;28;20225;-81
2023/07/31 00:44:59;;;;;;;3.33;1.95;;;;;;;20.40;60.72;95176.00;5122743;28;20714;-82
2023/07/31 00:47:26;;;;;;;5.20;2.08;;;;;;;20.44;60.31;95169.19;5104533;28;20200;-81
2023/07/31 00:49:54;;;;;;;2.65;1.52;;;;;;;20.43;60.50;95165.00;5105287;28;20228;-82
2023/07/31 00:52:21;;;;;;;3.75;2.00;;;;;;;20.27;60.77;95175.31;5115264;28;20759;-82
2023/07/31 00:54:49;;;;;;;4.32;1.80;;;;;;;20.27;60.74;95179.75;5117459;28;20201;-82
2023/07/31 00:57:16;;;;;;;1.98;1.80;;;;;;;20.19;61.28;95186.22;5100699;28;20282;-82
2023/07/31 00:59:42;;;;;;;4.38;1.98;;;;;;;20.13;61.37;95189.00;5113285;28;20227;-81
2023/07/31 01:02:08;;;;;;;3.08;1.90;;;;;;;20.11;61.99;95204.16;5119929;28;20202;-82
2023/07/31 01:04:38;;;;;;;3.15;2.00;;;;;;;20.13;61.62;95209.94;5119787;28;20649;-82
2023/07/31 01:07:14;;;;;;;2.58;1.90;;;;;;;20.15;62.05;95213.09;5116250;28;20280;-82
2023/07/31 01:09:45;;;;;;;2.03;1.70;;;;;;;20.11;62.08;95217.22;5101556;28;20287;-82
2023/07/31 01:12:16;;;;;;;3.88;2.35;;;;;;;19.98;62.25;95216.56;5098939;28;20709;-81
2023/07/31 01:14:51;;;;;;;3.75;1.98;;;;;;;20.01;62.74;95246.66;5098624;28;20701;-82
2023/07/31 01:17:18;;;;;;;2.40;1.80;;;;;;;20.07;62.28;95221.34;5098112;28;20205;-82
2023/07/31 01:19:47;;;;;;;3.10;2.00;;;;;;;20.10;61.84;95200.75;5099106;28;20223;-82
2023/07/31 01:22:32;;;;;;;2.80;1.88;;;;;;;20.00;61.91;95198.81;5106520;28;20206;-82
2023/07/31 01:25:16;;;;;;;2.95;2.00;;;;;;;19.94;62.08;95205.03;5119162;28;20199;-82
2023/07/31 01:27:50;;;;;;;6.10;2.00;;;;;;;20.07;60.99;95169.88;5100796;28;20200;-82
2023/07/31 01:30:19;;;;;;;2.13;1.73;;;;;;;20.11;60.76;95152.66;5098889;28;20215;-82
2023/07/31 01:32:49;;;;;;;1.83;1.70;;;;;;;20.16;60.35;95129.19;5099445;28;20261;-82
2023/07/31 01:35:15;;;;;;;2.85;1.83;;;;;;;20.18;60.15;95114.06;5097842;28;20235;-82
2023/07/31 01:37:42;;;;;;;3.17;2.40;;;;;;;20.17;59.80;95096.78;5098578;28;20200;-82
2023/07/31 01:40:09;;;;;;;3.33;1.90;;;;;;;20.17;60.02;95109.84;5118247;28;20313;-82
2023/07/31 01:42:36;;;;;;;2.53;1.90;;;;;;;20.16;60.15;95108.28;5112771;28;20196;-82
2023/07/31 01:45:04;;;;;;;2.92;1.65;;;;;;;20.17;60.29;95106.47;5109988;28;20222;-82
2023/07/31 01:47:30;;;;;;;5.50;1.75;;;;;;;20.20;60.57;95122.44;5103988;28;20206;-82
2023/07/31 01:49:57;;;;;;;3.17;1.83;;;;;;;20.21;60.15;95116.16;5099871;28;20216;-82
2023/07/31 01:52:23;;;;;;;2.63;1.70;;;;;;;20.23;60.24;95114.06;5101359;28;20438;-82
2023/07/31 01:54:50;;;;;;;2.30;1.60;;;;;;;20.23;60.15;95115.91;5111185;28;20195;-83
2023/07/31 01:57:16;;;;;;;3.97;1.92;;;;;;;20.25;60.11;95109.41;5114979;28;20199;-82
2023/07/31 01:59:42;;;;;;;2.13;1.65;;;;;;;20.25;60.60;95124.28;5109129;28;20216;-83
2023/07/31 02:02:10;;;;;;;3.10;1.90;;;;;;;20.28;60.39;95124.59;5101281;28;20858;-82
2023/07/31 02:04:38;;;;;;;2.35;1.70;;;;;;;20.26;60.73;95129.28;5106560;28;20203;-83
2023/07/31 02:07:05;;;;;;;2.72;1.80;;;;;;;20.21;60.77;95124.00;5110761;28;20195;-82
2023/07/31 02:09:31;;;;;;;1.70;1.60;;;;;;;20.20;61.22;95145.97;5102976;28;20219;-82
2023/07/31 02:11:58;;;;;;;4.32;2.20;;;;;;;20.21;61.09;95146.72;5119232;28;20200;-82
2023/07/31 02:14:24;;;;;;;2.83;1.90;;;;;;;20.18;61.33;95142.81;5122308;28;20210;-82
2023/07/31 02:16:50;;;;;;;4.07;2.10;;;;;;;20.12;61.42;95156.84;5112202;28;20646;-82
2023/07/31 02:19:18;;;;;;;2.85;1.80;;;;;;;20.09;61.69;95157.34;5100377;28;20220;-83
2023/07/31 02:21:45;;;;;;;2.42;1.65;;;;;;;20.15;60.83;95122.38;5101479;28;20292;-83
2023/07/31 02:24:11;;;;;;;2.53;1.90;;;;;;;20.18;60.67;95111.44;5100788;28;20200;-82
2023/07/31 02:26:37;;;;;;;2.67;1.85;;;;;;;20.21;60.40;95103.06;5105270;28;21774;-81
2023/07/31 02:29:04;;;;;;;4.22;1.75;;;;;;;20.25;60.43;95098.94;5120708;28;20936;-83
2023/07/31 02:31:30;;;;;;;3.95;1.60;;;;;;;20.22;60.40;95112.50;5121013;28;20206;-83
2023/07/31 02:33:57;;;;;;;2.25;1.52;;;;;;;20.22;60.90;95109.09;5120810;28;20195;-82
2023/07/31 02:36:24;;;;;;;2.33;1.73;;;;;;;20.22;60.70;95106.47;5119287;28;20199;-83
2023/07/31 02:38:51;;;;;;;2.97;1.80;;;;;;;20.25;60.84;95111.22;5105225;28;20220;-82
2023/07/31 02:41:17;;;;;;;3.28;1.85;;;;;;;20.14;61.35;95125.25;5118408;28;20212;-82
2023/07/31 02:43:44;;;;;;;8.32;2.05;;;;;;;20.14;61.06;95123.41;5119584;28;20195;-83
2023/07/31 02:46:10;;;;;;;3.28;2.10;;;;;;;20.11;61.09;95113.44;5120413;28;20203;-82
2023/07/31 02:48:37;;;;;;;2.55;1.73;;;;;;;20.05;61.68;95137.16;5121010;28;20604;-83
2023/07/31 02:51:03;;;;;;;4.13;1.80;;;;;;;20.01;62.21;95147.34;5119015;28;20252;-82
2023/07/31 02:53:31;;;;;;;3.22;1.98;;;;;;;20.05;62.04;95143.19;5108859;28;20234;-83
2023/07/31 02:55:57;;;;;;;2.97;2.10;;;;;;;20.02;62.29;95152.31;5107086;28;20196;-82
2023/07/31 02:58:24;;;;;;;2.97;1.90;;;;;;;20.05;62.15;95148.41;5102292;28;20207;-82
2023/07/31 03:00:50;;;;;;;2.47;1.77;;;;;;;19.98;62.45;95168.75;5120021;28;20226;-83
2023/07/31 03:03:16;;;;;;;4.13;1.75;;;;;;;19.96;63.05;95171.59;5101001;28;20195;-82
2023/07/31 03:05:43;;;;;;;3.13;2.20;;;;;;;19.92;63.04;95183.56;5114675;28;20195;-82
2023/07/31 03:08:09;;;;;;;2.95;1.83;;;;;;;19.83;63.62;95199.91;5100900;28;20196;-83
2023/07/31 03:10:37;;;;;;;3.47;1.92;;;;;;;19.84;63.62;95191.81;5100063;28;20219;-82
2023/07/31 03:13:04;;;;;;;6.75;1.98;;;;;;;19.77;64.36;95213.94;5099113;28;20200;-83
2023/07/31 03:15:30;;;;;;;5.63;1.60;;;;;;;19.76;64.24;95212.38;5109019;28;20207;-82
2023/07/31 03:17:56;;;;;;;3.08;2.10;;;;;;;19.76;64.59;95230.66;5116675;28;20207;-82
2023/07/31 03:20:23;;;;;;;3.15;1.90;;;;;;;19.79;64.34;95224.97;5120422;28;20223;-83
2023/07/31 03:22:49;;;;;;;2.40;1.88;;;;;;;19.77;64.70;95222.59;5119679;28;20203;-83
2023/07/31 03:25:16;;;;;;;2.97;1.80;;;;;;;19.78;64.51;95223.38;5119291;28;20195;-83
2023/07/31 03:27:44;;;;;;;3.65;2.03;;;;;;;19.80;64.46;95229.94;5103834;28;20211;-83
2023/07/31 03:30:11;;;;;;;2.17;1.80;;;;;;;19.79;64.57;95225.75;5098957;28;20239;-83
2023/07/31 03:32:37;;;;;;;3.58;1.70;;;;;;;19.78;65.13;95244.28;5121415;28;20196;-82
2023/07/31 03:35:05;;;;;;;2.55;2.00;;;;;;;19.80;65.06;95255.28;5122285;28;20204;-82
2023/07/31 03:37:31;;;;;;;5.72;2.22;;;;;;;19.82;65.19;95258.44;5108425;28;20226;-82
2023/07/31 03:39:58;;;;;;;2.22;1.98;;;;;;;19.77;65.38;95269.59;5103047;28;20227;-82
2023/07/31 03:42:24;;;;;;;3.72;2.15;;;;;;;19.78;65.98;95280.84;5102234;28;20581;-82
2023/07/31 03:44:55;;;;;;;2.47;2.00;;;;;;;19.80;65.67;95273.56;5107171;28;20192;-82
2023/07/31 03:47:21;;;;;;;4.32;2.10;;;;;;;19.78;65.86;95289.47;5124362;27;20202;-81
2023/07/31 03:49:48;;;;;;;4.05;2.10;;;;;;;19.78;66.18;95283.47;5121756;28;20310;-82
2023/07/31 03:52:14;;;;;;;2.95;2.22;;;;;;;19.76;66.24;95294.16;5111404;28;20610;-81
2023/07/31 03:54:41;;;;;;;3.53;2.33;;;;;;;19.74;66.66;95304.03;5103098;28;20575;-82
2023/07/31 03:57:07;;;;;;;3.05;2.13;;;;;;;19.76;66.70;95303.81;5110203;27;20207;-81
2023/07/31 03:59:34;;;;;;;2.40;2.13;;;;;;;19.76;66.75;95307.22;5123387;27;20222;-82
2023/07/31 04:02:01;;;;;;;3.45;1.88;;;;;;;19.76;66.69;95303.81;5122908;28;20230;-82
2023/07/31 04:04:28;;;;;;;3.95;2.20;;;;;;;19.79;66.62;95298.09;5120566;28;20198;-82
2023/07/31 04:06:54;;;;;;;2.47;2.28;;;;;;;19.78;66.88;95305.16;5113015;28;20191;-82
2023/07/31 04:09:21;;;;;;;3.60;2.47;;;;;;;19.75;66.96;95303.00;5102392;28;20212;-82
2023/07/31 04:11:47;;;;;;;2.88;1.98;;;;;;;19.79;66.81;95292.88;5102057;28;20204;-81
2023/07/31 04:14:13;;;;;;;4.68;2.20;;;;;;;19.77;66.81;95298.34;5102075;28;20211;-82
2023/07/31 04:16:40;;;;;;;3.25;2.10;;;;;;;19.78;66.66;95294.69;5102307;28;20200;-81
2023/07/31 04:19:08;;;;;;;4.85;2.25;;;;;;;19.79;66.84;95298.09;5102591;28;20230;-81
2023/07/31 04:21:34;;;;;;;3.83;2.33;;;;;;;19.77;66.64;95289.72;5122211;28;20231;-82
2023/07/31 04:24:00;;;;;;;3.22;2.10;;;;;;;19.76;66.91;95294.16;5122203;28;20206;-82
2023/07/31 04:26:27;;;;;;;3.75;2.13;;;;;;;19.77;66.82;95294.94;5122111;28;20774;-81
2023/07/31 04:28:53;;;;;;;2.42;2.15;;;;;;;19.77;67.20;95311.41;5104759;28;20220;-82
2023/07/31 04:31:20;;;;;;;5.13;2.38;;;;;;;19.77;67.11;95302.78;5131943;27;20187;-82
2023/07/31 04:33:46;;;;;;;2.95;2.47;;;;;;;19.79;66.97;95300.72;5131502;27;20191;-81
2023/07/31 04:36:14;;;;;;;3.08;2.30;;;;;;;19.76;67.42;95315.06;5125555;27;20190;-81
2023/07/31 04:38:40;;;;;;;2.97;2.00;;;;;;;19.64;68.26;95343.06;5130829;27;20235;-81
2023/07/31 04:41:07;;;;;;;2.85;2.30;;;;;;;19.67;67.91;95329.53;5128583;27;20211;-81
2023/07/31 04:43:33;;;;;;;2.95;2.42;;;;;;;19.69;67.90;95332.69;5119303;27;20195;-81
2023/07/31 04:46:00;;;;;;;2.92;2.50;;;;;;;19.72;67.75;95319.16;5119193;28;20207;-81
2023/07/31 04:48:26;;;;;;;3.90;2.10;;;;;;;19.75;67.81;95323.91;5108659;27;20247;-82
2023/07/31 04:50:53;;;;;;;2.95;2.42;;;;;;;19.66;67.94;95320.91;5119760;27;20896;-81
2023/07/31 04:53:21;;;;;;;2.97;2.20;;;;;;;19.73;67.78;95319.97;5117957;28;20199;-81
2023/07/31 04:55:47;;;;;;;5.40;2.30;;;;;;;19.77;67.67;95308.78;5122354;28;20210;-82
2023/07/31 04:58:13;;;;;;;3.83;2.15;;;;;;;19.72;67.96;95324.38;5119454;28;20203;-82
2023/07/31 05:00:40;;;;;;;3.15;2.10;;;;;;;19.72;67.93;95319.16;5126035;27;20247;-82
2023/07/31 05:03:07;;;;;;;5.00;2.30;;;;;;;19.75;68.06;95328.34;5119741;28;20203;-81
2023/07/31 05:05:33;;;;;;;2.85;2.30;;;;;;;19.81;67.94;95319.56;5117736;28;20206;-81
2023/07/31 05:07:59;;;;;;;2.47;2.22;;;;;;;19.81;67.83;95322.19;5118676;28;20235;-81
2023/07/31 05:10:27;;;;;;;3.00;2.22;;;;;;;19.87;68.26;95321.97;5119979;28;20234;-83
2023/07/31 05:12:54;;;;;;;3.05;2.45;;;;;;;19.95;67.84;95329.44;5119507;28;20195;-82
2023/07/31 05:15:20;;;;;;;3.88;2.40;;;;;;;20.01;67.98;95325.81;5119478;28;20211;-82
2023/07/31 05:17:46;;;;;;;3.75;2.17;;;;;;;20.05;67.89;95338.41;5119717;28;20203;-81
2023/07/31 05:20:14;;;;;;;3.20;2.35;;;;;;;20.17;67.54;95323.44;5117547;28;20238;-82
2023/07/31 05:22:41;;;;;;;2.63;2.22;;;;;;;20.26;67.05;95308.88;5118912;28;20718;-82
2023/07/31 05:25:08;;;;;;;2.65;2.15;;;;;;;20.32;67.29;95311.31;5117689;28;20199;-82
2023/07/31 05:27:36;;;;;;;6.20;2.40;;;;;;;20.38;66.85;95287.88;5118912;28;20208;-82
2023/07/31 05:30:02;;;;;;;3.70;2.20;;;;;;;20.44;66.83;95287.69;5119032;28;20220;-83
2023/07/31 05:32:29;;;;;;;4.60;2.65;;;;;;;20.47;66.62;95281.19;5118406;28;20202;-82
2023/07/31 05:34:55;;;;;;;3.47;2.17;;;;;;;20.45;66.26;95263.09;5117949;28;20210;-83
2023/07/31 05:37:22;;;;;;;3.60;2.30;;;;;;;20.42;65.37;95244.50;5117323;28;20336;-83
2023/07/31 05:39:49;;;;;;;2.85;2.20;;;;;;;20.33;64.72;95210.13;5117540;28;20219;-82
2023/07/31 05:42:15;;;;;;;2.67;1.80;;;;;;;20.31;65.08;95220.84;5116847;28;20216;-83
2023/07/31 05:44:43;;;;;;;2.63;2.05;;;;;;;20.40;64.84;95223.06;5116124;28;20195;-83
2023/07/31 05:47:10;;;;;;;2.65;2.20;;;;;;;20.42;64.52;95213.13;5116623;28;20210;-83
2023/07/31 05:49:36;;;;;;;2.67;2.30;;;;;;;20.45;64.37;95208.19;5115446;28;20891;-83
2023/07/31 05:52:03;;;;;;;4.05;2.50;;;;;;;20.44;64.33;95214.44;5116491;28;20200;-82
2023/07/31 05:54:29;;;;;;;3.28;2.08;;;;;;;20.44;64.38;95217.06;5115608;28;20200;-83
2023/07/31 05:56:56;;;;;;;2.63;1.80;;;;;;;20.57;64.34;95200.22;5114111;28;20211;-83
2023/07/31 05:59:22;;;;;;;2.35;2.15;;;;;;;20.46;63.99;95188.84;5117555;28;20219;-82
2023/07/31 06:01:50;;;;;;;3.50;2.25;;;;;;;20.48;63.99;95194.63;5117467;28;20235;-82
2023/07/31 06:04:16;;;;;;;2.60;2.20;;;;;;;20.54;63.57;95170.09;5116533;28;20199;-82
2023/07/31 06:06:43;;;;;;;4.50;1.90;;;;;;;20.60;63.21;95158.63;5115805;28;20298;-83
2023/07/31 06:09:09;;;;;;;4.75;2.10;;;;;;;20.77;63.42;95181.28;5115279;28;20223;-83
2023/07/31 06:11:35;;;;;;;2.47;1.67;;;;;;;20.78;63.13;95170.56;5115528;28;20196;-82
2023/07/31 06:14:02;;;;;;;3.42;2.08;;;;;;;20.78;62.58;95149.63;5115326;28;20208;-83
2023/07/31 06:16:28;;;;;;;2.42;2.20;;;;;;;20.87;62.39;95150.72;5118453;28;20207;-83
2023/07/31 06:18:56;;;;;;;3.40;2.38;;;;;;;20.80;61.23;95112.72;5117193;28;20227;-82
2023/07/31 06:21:22;;;;;;;2.85;2.03;;;;;;;20.67;61.85;95114.72;5117499;28;20219;-83
2023/07/31 06:23:49;;;;;;;2.75;1.98;;;;;;;20.63;61.88;95125.94;5117603;28;20210;-83
2023/07/31 06:26:15;;;;;;;2.95;2.00;;;;;;;20.74;61.77;95119.75;5115626;28;20199;-82
2023/07/31 06:28:42;;;;;;;2.38;2.03;;;;;;;20.85;61.58;95128.47;5113667;28;20836;-82
2023/07/31 06:31:09;;;;;;;2.47;2.13;;;;;;;20.73;60.78;95080.78;5117072;28;20199;-83
2023/07/31 06:33:35;;;;;;;1.95;1.80;;;;;;;20.75;60.87;95094.38;5116133;28;20206;-82
2023/07/31 06:36:03;;;;;;;1.77;1.63;;;;;;;20.66;60.51;95078.34;5116685;27;20317;-83
2023/07/31 06:38:29;;;;;;;2.50;1.73;;;;;;;20.73;61.27;95094.63;5116537;28;20203;-83
2023/07/31 06:40:56;;;;;;;2.00;1.80;;;;;;;20.79;60.99;95098.84;5115657;28;20604;-82
2023/07/31 06:43:22;;;;;;;3.22;2.00;;;;;;;20.85;61.09;95092.63;5115363;28;20195;-82
2023/07/31 06:45:51;;;;;;;2.22;2.00;;;;;;;20.79;60.92;95084.97;5115090;28;20812;-83
2023/07/31 06:48:17;;;;;;;2.25;1.83;;;;;;;20.82;60.90;95080.03;5117130;28;20226;-83
2023/07/31 06:50:44;;;;;;;3.95;1.88;;;;;;;20.86;60.76;95078.50;5116120;28;20223;-82
2023/07/31 06:53:11;;;;;;;2.28;1.88;;;;;;;20.99;60.57;95092.94;5116136;28;20196;-82
2023/07/31 06:55:38;;;;;;;2.03;1.83;;;;;;;21.08;60.24;95056.63;5115950;28;20206;-82
2023/07/31 06:58:04;;;;;;;3.33;1.67;;;;;;;20.94;59.99;95037.97;5115463;28;20199;-82
2023/07/31 07:00:32;;;;;;;2.40;1.92;;;;;;;20.93;60.18;95045.03;5096799;28;20237;-82
2023/07/31 07:02:58;;;;;;;4.22;1.75;;;;;;;20.96;60.35;95051.59;5115497;28;20267;-82
2023/07/31 07:05:25;;;;;;;4.15;1.80;;;;;;;20.87;60.08;95035.56;5115571;28;20203;-82
2023/07/31 07:07:51;;;;;;;5.15;2.33;;;;;;;20.86;60.33;95052.31;5115236;28;20226;-82
2023/07/31 07:10:20;;;;;;;1.98;1.60;;;;;;;20.90;60.10;95048.16;5116525;28;20219;-82
2023/07/31 07:12:46;;;;;;;4.43;1.90;;;;;;;21.02;60.53;95055.78;5113756;28;20192;-82
2023/07/31 07:15:13;;;;;;;2.60;1.90;;;;;;;21.05;60.16;95052.69;5115012;28;20219;-83
2023/07/31 07:17:40;;;;;;;2.35;2.00;;;;;;;21.04;60.42;95064.97;5112924;28;20233;-83
2023/07/31 07:20:08;;;;;;;3.40;1.70;;;;;;;20.94;60.18;95043.22;5115025;28;20642;-83
2023/07/31 07:22:35;;;;;;;3.67;2.00;;;;;;;20.92;60.09;95040.84;5115245;28;20588;-82
2023/07/31 07:25:02;;;;;;;2.10;1.90;;;;;;;21.03;60.34;95057.38;5115585;28;20646;-82
2023/07/31 07:27:29;;;;;;;3.63;2.22;;;;;;;20.99;59.68;95028.28;5116435;28;20199;-82
2023/07/31 07:29:56;;;;;;;2.58;1.73;;;;;;;21.04;59.96;95038.81;5116692;28;20230;-82
2023/07/31 07:32:22;;;;;;;4.28;2.08;;;;;;;21.02;59.92;95038.25;5113947;28;20858;-83
2023/07/31 07:34:49;;;;;;;2.80;1.98;;;;;;;21.14;60.12;95048.53;5114088;28;20215;-82
2023/07/31 07:37:16;;;;;;;5.15;2.05;;;;;;;21.30;59.58;95025.84;5118831;28;20216;-82
2023/07/31 07:39:42;;;;;;;3.72;2.20;;;;;;;21.49;59.36;95020.94;5119570;28;20220;-83
2023/07/31 07:42:09;;;;;;;2.97;1.83;;;;;;;21.67;59.51;95025.69;5117829;28;20766;-83
2023/07/31 07:44:37;;;;;;;2.95;1.70;;;;;;;21.70;59.18;95007.63;5118656;28;20188;-83
2023/07/31 07:47:05;;;;;;;3.10;2.00;;;;;;;21.76;58.56;94982.19;5118541;28;20238;-82
2023/07/31 07:49:32;;;;;;;2.92;1.90;;;;;;;21.73;58.22;94961.75;5106891;28;20588;-83
2023/07/31 07:51:58;;;;;;;2.13;1.80;;;;;;;21.80;58.09;94945.75;5117203;28;20211;-83
2023/07/31 07:54:25;;;;;;;3.33;1.90;;;;;;;21.82;57.78;94933.19;5116233;28;20203;-82
2023/07/31 07:56:51;;;;;;;2.28;1.95;;;;;;;21.83;57.48;94901.47;5116427;28;20207;-83
2023/07/31 07:59:18;;;;;;;2.40;2.10;;;;;;;21.83;57.11;94884.97;5115762;28;20615;-82
2023/07/31 08:01:45;;;;;;;3.50;1.80;;;;;;;21.80;57.09;94870.53;5117483;28;20633;-82
2023/07/31 08:04:12;;;;;;;3.72;1.88;;;;;;;21.81;56.98;94874.75;5115644;28;20200;-82
2023/07/31 08:06:38;;;;;;;3.10;1.83;;;;;;;21.86;56.88;94866.88;5115668;28;20211;-82
2023/07/31 08:09:06;;;;;;;2.92;1.65;;;;;;;22.14;56.35;94864.75;5116435;28;20231;-82
2023/07/31 08:11:32;;;;;;;2.85;2.13;;;;;;;22.24;55.50;94836.66;5115652;28;20198;-82
2023/07/31 08:13:59;;;;;;;2.45;1.63;;;;;;;22.47;55.47;94821.38;5114035;28;20207;-83
2023/07/31 08:16:25;;;;;;;2.22;1.80;;;;;;;22.62;54.92;94792.44;5112902;28;20199;-83
2023/07/31 08:18:53;;;;;;;2.95;1.65;;;;;;;22.57;54.51;94772.25;5116049;28;20231;-82
2023/07/31 08:21:19;;;;;;;6.80;2.00;;;;;;;22.68;54.51;94780.88;5118112;27;20199;-83
2023/07/31 08:23:46;;;;;;;2.22;1.83;;;;;;;22.83;53.53;94730.13;5118384;28;20210;-82
2023/07/31 08:26:16;;;;;;;4.50;1.80;;;;;;;22.85;52.83;94710.44;5117855;28;20203;-82
2023/07/31 08:28:42;;;;;;;2.13;1.60;;;;;;;22.58;53.49;94708.22;5119084;28;20210;-82
2023/07/31 08:31:09;;;;;;;5.78;5.25;;;;;;;22.47;52.82;94719.06;5116795;28;20461;-82
2023/07/31 08:33:35;;;;;;;5.15;3.75;;;;;;;22.27;53.15;94697.13;5117295;28;20672;-82
2023/07/31 08:36:03;;;;;;;2.75;1.73;;;;;;;22.19;52.62;94657.59;5120379;28;20196;-83
2023/07/31 08:38:30;;;;;;;2.70;1.60;;;;;;;22.31;52.58;94661.47;5117521;28;20214;-83
2023/07/31 08:40:57;;;;;;;2.40;1.75;;;;;;;22.35;52.94;94672.94;5120431;28;20206;-82
2023/07/31 08:43:26;;;;;;;2.13;1.60;;;;;;;22.39;53.55;94702.03;5118241;28;20219;-82
2023/07/31 08:45:53;;;;;;;2.47;1.67;;;;;;;22.35;53.39;94701.00;5117196;28;20199;-82
2023/07/31 08:48:20;;;;;;;3.13;1.67;;;;;;;22.32;53.50;94706.81;5117081;28;20828;-83
2023/07/31 08:50:47;;;;;;;5.43;1.90;;;;;;;22.22;53.75;94718.13;5117512;28;20262;-83
2023/07/31 08:53:14;;;;;;;2.92;1.58;;;;;;;22.20;53.87;94729.94;5114347;28;20206;-82
2023/07/31 08:55:41;;;;;;;3.38;1.70;;;;;;;22.05;53.62;94715.09;5117356;28;20234;-82
2023/07/31 08:58:08;;;;;;;4.97;1.70;;;;;;;21.94;53.53;94714.28;5117329;28;20200;-83
2023/07/31 09:00:35;;;;;;;3.30;1.55;;;;;;;21.93;53.78;94714.59;5116875;28;20219;-82
2023/07/31 09:03:04;;;;;;;2.47;1.70;;;;;;;21.93;53.87;94725.84;5116525;28;20222;-83
2023/07/31 09:05:33;;;;;;;3.60;1.60;;;;;;;22.14;54.24;94757.25;5116211;28;20192;-82
2023/07/31 09:08:02;;;;;;;3.28;1.63;;;;;;;22.28;54.29;94768.75;5116738;28;20202;-83
2023/07/31 09:10:30;;;;;;;3.40;1.60;;;;;;;22.40;53.19;94704.41;5115080;28;20223;-83
2023/07/31 09:12:57;;;;;;;2.72;1.70;;;;;;;22.70;53.64;94734.13;5116201;28;20214;-82
2023/07/31 09:15:24;;;;;;;2.15;1.48;;;;;;;22.63;52.99;94676.69;5116932;28;20207;-82
2023/07/31 09:18:00;;;;;;;2.78;1.90;;;;;;;22.70;53.00;94679.03;5117895;28;20210;-82
2023/07/31 09:20:27;;;;;;;2.22;1.50;;;;;;;22.77;52.26;94634.88;5117467;28;20849;-82
2023/07/31 09:22:54;;;;;;;2.35;1.77;;;;;;;22.74;51.90;94615.19;5116120;27;20250;-82
2023/07/31 09:25:22;;;;;;;2.40;1.55;;;;;;;22.69;52.05;94622.34;5116394;28;20256;-82
2023/07/31 09:27:51;;;;;;;1.90;1.70;;;;;;;22.56;51.40;94573.13;5115314;28;20196;-82
2023/07/31 09:30:19;;;;;;;3.60;1.70;;;;;;;22.84;51.63;94610.97;5114488;27;20238;-82
2023/07/31 09:32:46;;;;;;;2.58;1.60;;;;;;;23.09;51.97;94619.34;5114706;28;20200;-82
2023/07/31 09:35:19;;;;;;;2.28;1.67;;;;;;;23.20;52.82;94662.06;5117827;28;20200;-83
2023/07/31 09:37:49;;;;;;;2.67;1.60;;;;;;;23.21;52.50;94641.84;5117191;28;20614;-82
2023/07/31 09:40:26;;;;;;;2.88;1.90;;;;;;;23.28;51.30;94595.03;5118941;28;20224;-83
2023/07/31 09:42:56;;;;;;;3.72;1.90;;;;;;;23.41;50.90;94574.09;5120360;27;20223;-82
2023/07/31 09:45:25;;;;;;;3.35;1.70;;;;;;;23.92;50.30;94570.81;5117450;28;20195;-82
2023/07/31 09:47:52;;;;;;;2.78;1.50;;;;;;;24.32;49.15;94503.69;5118910;28;20196;-83
2023/07/31 09:50:19;;;;;;;2.75;1.50;;;;;;;24.53;48.64;94463.88;5117595;28;20315;-82
2023/07/31 09:52:45;;;;;;;2.08;1.60;;;;;;;24.75;49.79;94530.59;5117894;28;20308;-82
2023/07/31 09:55:12;;;;;;;2.30;1.73;;;;;;;24.68;49.50;94482.78;5117341;28;20242;-83
2023/07/31 09:57:40;;;;;;;9.77;8.82;;;;;;;24.46;48.49;94422.16;5115072;28;20196;-82
2023/07/31 10:00:10;;;;;;;2.60;1.80;;;;;;;24.44;47.53;94376.91;5117285;28;20219;-83
2023/07/31 10:02:37;;;;;;;5.10;2.45;;;;;;;24.64;47.64;94366.00;5117366;28;20223;-82
2023/07/31 10:05:06;;;;;;;3.53;1.88;;;;;;;24.68;47.56;94371.47;5117480;28;20219;-83
2023/07/31 10:07:37;;;;;;;3.17;1.63;;;;;;;24.54;47.98;94397.78;5117532;28;20699;-82
2023/07/31 10:10:05;;;;;;;3.60;1.80;;;;;;;24.65;47.79;94369.41;5116765;28;20581;-82
2023/07/31 10:12:34;;;;;;;4.00;1.85;;;;;;;24.96;47.53;94364.34;5116827;28;20191;-83
2023/07/31 10:15:01;;;;;;;2.20;1.90;;;;;;;25.21;47.11;94323.50;5116330;28;20264;-83
2023/07/31 10:17:30;;;;;;;3.08;1.73;;;;;;;25.39;45.80;94264.56;5117132;28;20199;-82
2023/07/31 10:19:59;;;;;;;2.80;1.75;;;;;;;25.03;45.88;94235.63;5117849;28;20222;-82
2023/07/31 10:22:26;;;;;;;3.25;2.00;;;;;;;25.26;45.92;94242.44;5117176;28;20226;-82
2023/07/31 10:24:55;;;;;;;1.95;1.55;;;;;;;25.05;45.83;94236.13;5118855;28;20202;-82
2023/07/31 10:27:21;;;;;;;3.60;1.77;;;;;;;25.29;45.73;94220.78;5120435;28;20238;-82
2023/07/31 10:29:49;;;;;;;2.78;1.77;;;;;;;25.43;46.07;94237.28;5117191;28;20704;-82
2023/07/31 10:32:17;;;;;;;3.22;1.85;;;;;;;24.86;44.67;94175.69;5115189;28;20195;-82
2023/07/31 10:34:46;;;;;;;1.98;1.73;;;;;;;24.34;45.55;94204.25;5117747;28;20195;-81
2023/07/31 10:37:24;;;;;;;3.25;2.00;;;;;;;24.07;46.78;94260.28;5116527;28;20204;-80
2023/07/31 10:40:02;;;;;;;4.22;1.90;;;;;;;24.08;47.29;94308.41;5118157;28;20618;-80
2023/07/31 10:42:33;;;;;;;3.03;1.70;;;;;;;24.24;47.91;94351.81;5115305;28;20625;-80
2023/07/31 10:45:02;;;;;;;2.05;1.73;;;;;;;24.36;47.23;94322.38;5115373;28;20200;-80
2023/07/31 10:47:28;;;;;;;3.80;2.15;;;;;;;24.29;46.35;94256.19;5114372;28;20199;-80
2023/07/31 10:50:19;;;;;;;1.95;1.67;;;;;;;24.20;46.27;94245.56;5116660;28;20623;-81
2023/07/31 10:52:49;;;;;;;7.00;6.28;;;;;;;24.06;47.35;94290.28;5116730;28;20199;-81
2023/07/31 10:55:17;;;;;;;3.65;2.70;;;;;;;24.02;47.30;94280.66;5116821;28;20231;-81
2023/07/31 10:57:46;;;;;;;2.03;1.83;;;;;;;24.29;46.79;94290.41;5116449;28;20211;-82
2023/07/31 11:00:20;;;;;;;2.95;1.70;;;;;;;24.42;45.54;94192.28;5118274;28;20211;-81
2023/07/31 11:02:57;;;;;;;1.98;1.85;;;;;;;24.38;45.38;94194.72;5120683;28;20219;-81
2023/07/31 11:05:42;;;;;;;3.10;1.88;;;;;;;24.65;45.95;94211.47;5121871;28;20830;-81
2023/07/31 11:08:16;;;;;;;3.83;2.00;;;;;;;24.67;46.55;94243.53;5118124;28;20579;-80
2023/07/31 11:10:43;;;;;;;3.25;2.10;;;;;;;24.85;45.91;94216.28;5116850;28;20218;-81
2023/07/31 11:13:10;;;;;;;2.13;1.73;;;;;;;24.71;45.60;94194.50;5118369;28;20199;-81
2023/07/31 11:15:36;;;;;;;3.58;2.17;;;;;;;24.72;47.01;94261.88;5116057;28;20222;-81
2023/07/31 11:18:05;;;;;;;2.72;2.10;;;;;;;24.64;46.27;94230.97;5120362;28;20208;-81
2023/07/31 11:20:33;;;;;;;2.05;1.70;;;;;;;24.59;45.67;94197.66;5113574;28;20247;-83
2023/07/31 11:23:02;;;;;;;2.63;1.58;;;;;;;24.48;46.07;94220.00;5116583;28;20226;-83
2023/07/31 11:25:30;;;;;;;4.28;1.90;;;;;;;24.46;45.89;94198.47;5115738;28;20227;-82
2023/07/31 11:27:57;;;;;;;2.05;1.85;;;;;;;24.52;45.59;94181.50;5115265;28;20199;-81
2023/07/31 11:30:23;;;;;;;2.33;1.60;;;;;;;24.52;46.11;94204.41;5118096;28;20601;-81
2023/07/31 11:32:50;;;;;;;3.63;2.97;;;;;;;24.50;45.97;94204.72;5118516;28;20195;-81
2023/07/31 11:35:16;;;;;;;3.65;2.47;;;;;;;24.53;45.84;94187.53;5117868;28;20230;-81